Estación de Trinidad
Ultimos registro cada 15 minutos 39
| N° | Estación | Fecha / Hora | Temperatura | Humedad | Lluvia | Velocidad | Dirección | Radiación | Presion |
| 39 | Trinidad | 10-05-2026 09:30 | 7,4 | 86 | 0 | 0 | 137 | 334 | 1017,9 |
| 38 | Trinidad | 10-05-2026 09:15 | 6,8 | 87 | 0 | 1,3 | 136 | 33 | 1018,2 |
| 37 | Trinidad | 10-05-2026 09:00 | 6,2 | 92 | 0 | 0 | 144 | 105 | 1018,2 |
| 36 | Trinidad | 10-05-2026 08:45 | 5,6 | 94 | 0 | 0 | 144 | 148 | 1018,2 |
| 35 | Trinidad | 10-05-2026 08:30 | 4,4 | 94 | 0 | 0 | 144 | 132 | 1017,9 |
| 34 | Trinidad | 10-05-2026 08:15 | 3,1 | 92 | 0 | 0 | 144 | 83 | 1017,9 |
| 33 | Trinidad | 10-05-2026 08:00 | 2,9 | 93 | 0 | 0 | 144 | 19 | 1017,8 |
| 32 | Trinidad | 10-05-2026 07:45 | 2,5 | 93 | 0 | 0 | 144 | 12 | 1017,6 |
| 31 | Trinidad | 10-05-2026 07:30 | 1,3 | 90 | 0 | 0 | 145 | 0 | 1017,6 |
| 30 | Trinidad | 10-05-2026 07:15 | 1,8 | 90 | 0 | 0 | 145 | 0 | 1017,7 |
| 29 | Trinidad | 10-05-2026 07:00 | 2,1 | 91 | 0 | 0 | 145 | 0 | 1017,8 |
| 28 | Trinidad | 10-05-2026 06:45 | 1,8 | 91 | 0 | 0 | 145 | 0 | 1017,8 |
| 27 | Trinidad | 10-05-2026 06:30 | 2 | 91 | 0 | 0 | 145 | 0 | 1017,7 |
| 26 | Trinidad | 10-05-2026 06:15 | 2,3 | 91 | 0 | 0 | 145 | 0 | 1017,7 |
| 25 | Trinidad | 10-05-2026 06:00 | 2,3 | 89 | 0 | 0 | 145 | 0 | 1017,6 |
| 24 | Trinidad | 10-05-2026 05:45 | 2,7 | 89 | 0 | 0 | 145 | 0 | 1017,6 |
| 23 | Trinidad | 10-05-2026 05:30 | 2,9 | 90 | 0 | 0 | 145 | 0 | 1017,5 |
| 22 | Trinidad | 10-05-2026 05:15 | 2,8 | 89 | 0 | 0 | 145 | 0 | 1017,2 |
| 21 | Trinidad | 10-05-2026 05:00 | 3,2 | 89 | 0 | 0 | 145 | 0 | 1017,2 |
| 20 | Trinidad | 10-05-2026 04:45 | 3,3 | 89 | 0 | 0 | 145 | 0 | 1017,2 |
| 19 | Trinidad | 10-05-2026 04:30 | 3,6 | 88 | 0 | 0 | 145 | 0 | 1017,2 |
| 18 | Trinidad | 10-05-2026 04:15 | 4,1 | 88 | 0 | 0 | 145 | 0 | 1017,4 |
| 17 | Trinidad | 10-05-2026 04:00 | 4,4 | 85 | 0 | 0 | 145 | 0 | 1017,4 |
| 16 | Trinidad | 10-05-2026 03:45 | 5,6 | 86 | 0 | 0 | 145 | 0 | 1017,2 |
| 15 | Trinidad | 10-05-2026 03:30 | 6,1 | 87 | 0 | 0,4 | 145 | 0 | 1017,3 |
| 14 | Trinidad | 10-05-2026 03:15 | 5,9 | 88 | 0 | 0,9 | 145 | 0 | 1017,3 |
| 13 | Trinidad | 10-05-2026 03:00 | 5,7 | 90 | 0 | 1,3 | 151 | 0 | 1017,5 |
| 12 | Trinidad | 10-05-2026 02:45 | 5 | 90 | 0 | 0 | 151 | 0 | 1017,8 |
| 11 | Trinidad | 10-05-2026 02:30 | 4,3 | 87 | 0 | 0 | 151 | 0 | 1017,8 |
| 10 | Trinidad | 10-05-2026 02:15 | 4,8 | 87 | 0 | 0 | 151 | 0 | 1017,8 |
| 9 | Trinidad | 10-05-2026 02:00 | 5,4 | 85 | 0 | 0 | 151 | 0 | 1018 |
| 8 | Trinidad | 10-05-2026 01:45 | 6,1 | 84 | 0 | 0 | 151 | 0 | 1018,1 |
| 7 | Trinidad | 10-05-2026 01:30 | 6,6 | 85 | 0 | 0 | 151 | 0 | 1018 |
| 6 | Trinidad | 10-05-2026 01:15 | 6,8 | 85 | 0 | 0,4 | 151 | 0 | 1017,9 |
| 5 | Trinidad | 10-05-2026 01:00 | 7 | 85 | 0 | 0 | 151 | 0 | 1017,9 |
| 4 | Trinidad | 10-05-2026 00:45 | 6,7 | 85 | 0 | 0 | 151 | 0 | 1018,1 |
| 3 | Trinidad | 10-05-2026 00:30 | 6,3 | 84 | 0 | 0 | 151 | 0 | 1018,1 |
| 2 | Trinidad | 10-05-2026 00:15 | 6,8 | 84 | 0 | 0 | 151 | 0 | 1018,1 |
| 1 | Trinidad | 10-05-2026 00:00 | 6,6 | 85 | 0 | 0,9 | 151 | 0 | 1017,9 |